sensor_id;sensor_type;location;lat;lon;timestamp;P1;durP1;ratioP1;P2;durP2;ratioP2
2438;SDS011;14509;47.992;7.848;2023-12-29T00:01:29;4.25;;;2.60;;
2438;SDS011;14509;47.992;7.848;2023-12-29T00:03:31;3.33;;;2.63;;
2438;SDS011;14509;47.992;7.848;2023-12-29T00:05:33;2.40;;;2.20;;
2438;SDS011;14509;47.992;7.848;2023-12-29T00:07:35;3.40;;;2.60;;
2438;SDS011;14509;47.992;7.848;2023-12-29T00:09:38;2.60;;;2.40;;
2438;SDS011;14509;47.992;7.848;2023-12-29T00:11:40;2.75;;;2.40;;
2438;SDS011;14509;47.992;7.848;2023-12-29T00:13:44;3.20;;;2.50;;
2438;SDS011;14509;47.992;7.848;2023-12-29T00:15:46;3.47;;;2.50;;
2438;SDS011;14509;47.992;7.848;2023-12-29T00:17:50;3.60;;;2.70;;
2438;SDS011;14509;47.992;7.848;2023-12-29T00:19:53;3.65;;;2.17;;
2438;SDS011;14509;47.992;7.848;2023-12-29T00:21:55;3.35;;;2.67;;
2438;SDS011;14509;47.992;7.848;2023-12-29T00:23:57;4.15;;;2.55;;
2438;SDS011;14509;47.992;7.848;2023-12-29T00:25:59;3.03;;;2.70;;
2438;SDS011;14509;47.992;7.848;2023-12-29T00:27:59;3.00;;;2.42;;
2438;SDS011;14509;47.992;7.848;2023-12-29T00:30:03;3.28;;;2.95;;
2438;SDS011;14509;47.992;7.848;2023-12-29T00:32:05;4.80;;;2.50;;
2438;SDS011;14509;47.992;7.848;2023-12-29T00:34:07;3.50;;;2.60;;
2438;SDS011;14509;47.992;7.848;2023-12-29T00:36:14;2.85;;;2.55;;
2438;SDS011;14509;47.992;7.848;2023-12-29T00:38:16;3.47;;;2.40;;
2438;SDS011;14509;47.992;7.848;2023-12-29T00:40:18;3.08;;;2.50;;
2438;SDS011;14509;47.992;7.848;2023-12-29T00:42:20;3.40;;;2.67;;
2438;SDS011;14509;47.992;7.848;2023-12-29T00:44:22;3.85;;;3.00;;
2438;SDS011;14509;47.992;7.848;2023-12-29T00:46:24;5.00;;;2.80;;
2438;SDS011;14509;47.992;7.848;2023-12-29T00:48:26;2.85;;;2.50;;
2438;SDS011;14509;47.992;7.848;2023-12-29T00:50:28;3.45;;;2.55;;
2438;SDS011;14509;47.992;7.848;2023-12-29T00:52:30;4.00;;;2.60;;
2438;SDS011;14509;47.992;7.848;2023-12-29T00:54:32;4.75;;;3.03;;
2438;SDS011;14509;47.992;7.848;2023-12-29T00:56:34;5.15;;;3.80;;
2438;SDS011;14509;47.992;7.848;2023-12-29T00:58:36;3.50;;;3.20;;
2438;SDS011;14509;47.992;7.848;2023-12-29T01:00:38;3.55;;;3.25;;
2438;SDS011;14509;47.992;7.848;2023-12-29T01:02:41;4.10;;;3.15;;
2438;SDS011;14509;47.992;7.848;2023-12-29T01:04:43;5.05;;;3.40;;
2438;SDS011;14509;47.992;7.848;2023-12-29T01:06:45;3.80;;;3.40;;
2438;SDS011;14509;47.992;7.848;2023-12-29T01:08:49;3.22;;;2.92;;
2438;SDS011;14509;47.992;7.848;2023-12-29T01:10:50;3.40;;;2.95;;
2438;SDS011;14509;47.992;7.848;2023-12-29T01:12:52;4.70;;;3.10;;
2438;SDS011;14509;47.992;7.848;2023-12-29T01:14:54;4.00;;;3.60;;
2438;SDS011;14509;47.992;7.848;2023-12-29T01:16:56;5.50;;;3.60;;
2438;SDS011;14509;47.992;7.848;2023-12-29T01:18:59;3.00;;;2.70;;
2438;SDS011;14509;47.992;7.848;2023-12-29T01:21:01;4.18;;;2.83;;
2438;SDS011;14509;47.992;7.848;2023-12-29T01:23:03;4.22;;;2.80;;
2438;SDS011;14509;47.992;7.848;2023-12-29T01:25:05;4.65;;;3.60;;
2438;SDS011;14509;47.992;7.848;2023-12-29T01:27:08;3.80;;;3.50;;
2438;SDS011;14509;47.992;7.848;2023-12-29T01:29:10;4.25;;;3.60;;
2438;SDS011;14509;47.992;7.848;2023-12-29T01:31:13;4.35;;;3.50;;
2438;SDS011;14509;47.992;7.848;2023-12-29T01:33:15;4.30;;;3.75;;
2438;SDS011;14509;47.992;7.848;2023-12-29T01:35:18;3.70;;;3.30;;
2438;SDS011;14509;47.992;7.848;2023-12-29T01:37:20;4.53;;;3.40;;
2438;SDS011;14509;47.992;7.848;2023-12-29T01:39:22;5.32;;;3.70;;
2438;SDS011;14509;47.992;7.848;2023-12-29T01:41:23;4.05;;;3.65;;
2438;SDS011;14509;47.992;7.848;2023-12-29T01:43:25;4.10;;;3.70;;
2438;SDS011;14509;47.992;7.848;2023-12-29T01:45:26;4.10;;;3.60;;
2438;SDS011;14509;47.992;7.848;2023-12-29T01:47:28;4.67;;;3.70;;
2438;SDS011;14509;47.992;7.848;2023-12-29T01:49:31;3.88;;;3.40;;
2438;SDS011;14509;47.992;7.848;2023-12-29T01:51:36;3.83;;;3.47;;
2438;SDS011;14509;47.992;7.848;2023-12-29T01:53:37;6.20;;;3.53;;
2438;SDS011;14509;47.992;7.848;2023-12-29T01:55:39;4.18;;;3.75;;
2438;SDS011;14509;47.992;7.848;2023-12-29T01:57:44;5.60;;;4.10;;
2438;SDS011;14509;47.992;7.848;2023-12-29T01:59:45;5.45;;;3.80;;
2438;SDS011;14509;47.992;7.848;2023-12-29T02:01:49;4.13;;;3.50;;
2438;SDS011;14509;47.992;7.848;2023-12-29T02:03:50;5.35;;;3.70;;
2438;SDS011;14509;47.992;7.848;2023-12-29T02:05:52;4.38;;;3.90;;
2438;SDS011;14509;47.992;7.848;2023-12-29T02:07:57;3.78;;;3.47;;
2438;SDS011;14509;47.992;7.848;2023-12-29T02:10:00;5.85;;;3.45;;
2438;SDS011;14509;47.992;7.848;2023-12-29T02:12:03;5.00;;;3.90;;
2438;SDS011;14509;47.992;7.848;2023-12-29T02:14:05;3.67;;;3.33;;
2438;SDS011;14509;47.992;7.848;2023-12-29T02:16:08;4.53;;;4.13;;
2438;SDS011;14509;47.992;7.848;2023-12-29T02:18:17;4.00;;;3.60;;
2438;SDS011;14509;47.992;7.848;2023-12-29T02:20:20;4.35;;;3.90;;
2438;SDS011;14509;47.992;7.848;2023-12-29T02:22:22;5.32;;;3.60;;
2438;SDS011;14509;47.992;7.848;2023-12-29T02:24:25;4.20;;;3.80;;
2438;SDS011;14509;47.992;7.848;2023-12-29T02:26:29;4.45;;;4.05;;
2438;SDS011;14509;47.992;7.848;2023-12-29T02:28:34;3.80;;;3.30;;
2438;SDS011;14509;47.992;7.848;2023-12-29T02:30:41;5.45;;;3.80;;
2438;SDS011;14509;47.992;7.848;2023-12-29T02:32:47;5.32;;;3.53;;
2438;SDS011;14509;47.992;7.848;2023-12-29T02:34:50;4.47;;;3.47;;
2438;SDS011;14509;47.992;7.848;2023-12-29T02:36:53;4.78;;;3.78;;
2438;SDS011;14509;47.992;7.848;2023-12-29T02:38:56;3.72;;;3.33;;
2438;SDS011;14509;47.992;7.848;2023-12-29T02:40:58;4.20;;;3.47;;
2438;SDS011;14509;47.992;7.848;2023-12-29T02:43:01;4.47;;;3.63;;
2438;SDS011;14509;47.992;7.848;2023-12-29T02:45:03;3.88;;;3.30;;
2438;SDS011;14509;47.992;7.848;2023-12-29T02:47:07;3.70;;;3.10;;
2438;SDS011;14509;47.992;7.848;2023-12-29T02:49:09;5.15;;;3.60;;
2438;SDS011;14509;47.992;7.848;2023-12-29T02:51:13;5.40;;;3.50;;
2438;SDS011;14509;47.992;7.848;2023-12-29T02:53:15;4.25;;;3.45;;
2438;SDS011;14509;47.992;7.848;2023-12-29T02:55:17;4.00;;;3.28;;
2438;SDS011;14509;47.992;7.848;2023-12-29T02:57:19;4.13;;;3.25;;
2438;SDS011;14509;47.992;7.848;2023-12-29T02:59:23;3.58;;;3.28;;
2438;SDS011;14509;47.992;7.848;2023-12-29T03:01:25;3.85;;;3.30;;
2438;SDS011;14509;47.992;7.848;2023-12-29T03:03:29;4.55;;;3.53;;
2438;SDS011;14509;47.992;7.848;2023-12-29T03:05:31;3.42;;;3.10;;
2438;SDS011;14509;47.992;7.848;2023-12-29T03:07:32;3.53;;;3.10;;
2438;SDS011;14509;47.992;7.848;2023-12-29T03:09:34;4.47;;;3.22;;
2438;SDS011;14509;47.992;7.848;2023-12-29T03:11:36;3.90;;;3.50;;
2438;SDS011;14509;47.992;7.848;2023-12-29T03:13:37;3.55;;;2.80;;
2438;SDS011;14509;47.992;7.848;2023-12-29T03:15:40;4.40;;;3.50;;
2438;SDS011;14509;47.992;7.848;2023-12-29T03:17:42;3.63;;;3.33;;
2438;SDS011;14509;47.992;7.848;2023-12-29T03:19:44;5.30;;;3.50;;
2438;SDS011;14509;47.992;7.848;2023-12-29T03:21:46;4.20;;;3.17;;
2438;SDS011;14509;47.992;7.848;2023-12-29T03:23:48;5.20;;;3.95;;
2438;SDS011;14509;47.992;7.848;2023-12-29T03:25:50;4.43;;;3.60;;
2438;SDS011;14509;47.992;7.848;2023-12-29T03:27:52;5.53;;;3.50;;
2438;SDS011;14509;47.992;7.848;2023-12-29T03:29:53;4.55;;;3.10;;
2438;SDS011;14509;47.992;7.848;2023-12-29T03:31:57;4.57;;;3.00;;
2438;SDS011;14509;47.992;7.848;2023-12-29T03:33:59;4.00;;;3.60;;
2438;SDS011;14509;47.992;7.848;2023-12-29T03:36:01;5.78;;;3.50;;
2438;SDS011;14509;47.992;7.848;2023-12-29T03:38:03;5.00;;;2.50;;
2438;SDS011;14509;47.992;7.848;2023-12-29T03:40:06;4.38;;;3.65;;
2438;SDS011;14509;47.992;7.848;2023-12-29T03:42:11;3.83;;;3.40;;
2438;SDS011;14509;47.992;7.848;2023-12-29T03:44:13;5.88;;;3.30;;
2438;SDS011;14509;47.992;7.848;2023-12-29T03:46:16;4.70;;;3.13;;
2438;SDS011;14509;47.992;7.848;2023-12-29T03:48:19;3.50;;;3.20;;
2438;SDS011;14509;47.992;7.848;2023-12-29T03:50:21;4.68;;;3.10;;
2438;SDS011;14509;47.992;7.848;2023-12-29T03:52:23;3.20;;;2.90;;
2438;SDS011;14509;47.992;7.848;2023-12-29T03:54:25;3.85;;;3.08;;
2438;SDS011;14509;47.992;7.848;2023-12-29T03:56:27;5.43;;;3.40;;
2438;SDS011;14509;47.992;7.848;2023-12-29T03:58:29;3.70;;;3.40;;
2438;SDS011;14509;47.992;7.848;2023-12-29T04:00:31;5.47;;;3.35;;
2438;SDS011;14509;47.992;7.848;2023-12-29T04:02:33;3.15;;;2.75;;
2438;SDS011;14509;47.992;7.848;2023-12-29T04:04:38;3.53;;;2.60;;
2438;SDS011;14509;47.992;7.848;2023-12-29T04:06:41;3.88;;;3.30;;
2438;SDS011;14509;47.992;7.848;2023-12-29T04:08:43;5.05;;;2.85;;
2438;SDS011;14509;47.992;7.848;2023-12-29T04:10:45;5.57;;;3.50;;
2438;SDS011;14509;47.992;7.848;2023-12-29T04:12:47;6.43;;;3.00;;
2438;SDS011;14509;47.992;7.848;2023-12-29T04:14:49;4.00;;;2.40;;
2438;SDS011;14509;47.992;7.848;2023-12-29T04:16:51;3.40;;;3.10;;
2438;SDS011;14509;47.992;7.848;2023-12-29T04:18:55;2.70;;;2.40;;
2438;SDS011;14509;47.992;7.848;2023-12-29T04:20:58;3.53;;;2.90;;
2438;SDS011;14509;47.992;7.848;2023-12-29T04:23:00;2.80;;;2.50;;
2438;SDS011;14509;47.992;7.848;2023-12-29T04:25:04;4.03;;;2.72;;
2438;SDS011;14509;47.992;7.848;2023-12-29T04:27:05;3.75;;;3.00;;
2438;SDS011;14509;47.992;7.848;2023-12-29T04:29:07;3.15;;;2.60;;
2438;SDS011;14509;47.992;7.848;2023-12-29T04:31:09;3.20;;;2.50;;
2438;SDS011;14509;47.992;7.848;2023-12-29T04:33:11;3.50;;;2.70;;
2438;SDS011;14509;47.992;7.848;2023-12-29T04:35:14;2.80;;;2.50;;
2438;SDS011;14509;47.992;7.848;2023-12-29T04:37:17;3.10;;;2.47;;
2438;SDS011;14509;47.992;7.848;2023-12-29T04:39:20;4.10;;;2.70;;
2438;SDS011;14509;47.992;7.848;2023-12-29T04:41:22;3.60;;;2.40;;
2438;SDS011;14509;47.992;7.848;2023-12-29T04:43:24;2.80;;;2.50;;
2438;SDS011;14509;47.992;7.848;2023-12-29T04:45:26;3.10;;;2.80;;
2438;SDS011;14509;47.992;7.848;2023-12-29T04:47:27;5.40;;;3.30;;
2438;SDS011;14509;47.992;7.848;2023-12-29T04:49:29;2.72;;;2.38;;
2438;SDS011;14509;47.992;7.848;2023-12-29T04:51:31;4.30;;;2.40;;
2438;SDS011;14509;47.992;7.848;2023-12-29T04:53:34;3.80;;;2.60;;
2438;SDS011;14509;47.992;7.848;2023-12-29T04:55:36;3.95;;;2.60;;
2438;SDS011;14509;47.992;7.848;2023-12-29T04:57:38;3.67;;;2.60;;
2438;SDS011;14509;47.992;7.848;2023-12-29T04:59:41;3.40;;;2.40;;
2438;SDS011;14509;47.992;7.848;2023-12-29T05:01:43;2.95;;;2.65;;
2438;SDS011;14509;47.992;7.848;2023-12-29T05:03:45;3.90;;;3.08;;
2438;SDS011;14509;47.992;7.848;2023-12-29T05:05:49;3.15;;;2.55;;
2438;SDS011;14509;47.992;7.848;2023-12-29T05:07:51;2.93;;;2.20;;
2438;SDS011;14509;47.992;7.848;2023-12-29T05:09:53;4.30;;;2.60;;
2438;SDS011;14509;47.992;7.848;2023-12-29T05:11:55;3.40;;;2.40;;
2438;SDS011;14509;47.992;7.848;2023-12-29T05:13:57;3.35;;;2.70;;
2438;SDS011;14509;47.992;7.848;2023-12-29T05:15:59;3.55;;;3.00;;
2438;SDS011;14509;47.992;7.848;2023-12-29T05:18:04;3.78;;;3.00;;
2438;SDS011;14509;47.992;7.848;2023-12-29T05:20:06;4.25;;;2.90;;
2438;SDS011;14509;47.992;7.848;2023-12-29T05:22:09;2.90;;;2.50;;
2438;SDS011;14509;47.992;7.848;2023-12-29T05:24:11;2.60;;;2.40;;
2438;SDS011;14509;47.992;7.848;2023-12-29T05:26:15;2.60;;;2.40;;
2438;SDS011;14509;47.992;7.848;2023-12-29T05:28:17;3.10;;;2.80;;
2438;SDS011;14509;47.992;7.848;2023-12-29T05:30:19;2.78;;;2.33;;
2438;SDS011;14509;47.992;7.848;2023-12-29T05:32:20;4.30;;;2.60;;
2438;SDS011;14509;47.992;7.848;2023-12-29T05:34:22;3.45;;;2.50;;
2438;SDS011;14509;47.992;7.848;2023-12-29T05:36:24;3.17;;;2.55;;
2438;SDS011;14509;47.992;7.848;2023-12-29T05:38:25;2.55;;;2.35;;
2438;SDS011;14509;47.992;7.848;2023-12-29T05:40:27;3.85;;;2.50;;
2438;SDS011;14509;47.992;7.848;2023-12-29T05:42:31;3.08;;;2.20;;
2438;SDS011;14509;47.992;7.848;2023-12-29T05:44:35;2.67;;;2.28;;
2438;SDS011;14509;47.992;7.848;2023-12-29T05:46:37;3.28;;;2.33;;
2438;SDS011;14509;47.992;7.848;2023-12-29T05:48:38;2.50;;;2.30;;
2438;SDS011;14509;47.992;7.848;2023-12-29T05:50:40;3.45;;;2.30;;
2438;SDS011;14509;47.992;7.848;2023-12-29T05:52:42;2.80;;;2.30;;
2438;SDS011;14509;47.992;7.848;2023-12-29T05:54:44;3.00;;;2.25;;
2438;SDS011;14509;47.992;7.848;2023-12-29T05:56:46;3.28;;;2.47;;
2438;SDS011;14509;47.992;7.848;2023-12-29T05:58:49;3.57;;;2.40;;
2438;SDS011;14509;47.992;7.848;2023-12-29T06:00:51;3.45;;;2.40;;
2438;SDS011;14509;47.992;7.848;2023-12-29T06:02:53;2.90;;;2.10;;
2438;SDS011;14509;47.992;7.848;2023-12-29T06:04:55;2.70;;;2.50;;
2438;SDS011;14509;47.992;7.848;2023-12-29T06:06:56;2.60;;;2.40;;
2438;SDS011;14509;47.992;7.848;2023-12-29T06:08:58;2.90;;;2.30;;
2438;SDS011;14509;47.992;7.848;2023-12-29T06:11:00;2.80;;;2.60;;
2438;SDS011;14509;47.992;7.848;2023-12-29T06:13:01;2.45;;;2.25;;
2438;SDS011;14509;47.992;7.848;2023-12-29T06:15:05;3.33;;;2.40;;
2438;SDS011;14509;47.992;7.848;2023-12-29T06:17:08;2.80;;;2.15;;
2438;SDS011;14509;47.992;7.848;2023-12-29T06:19:10;2.33;;;2.10;;
2438;SDS011;14509;47.992;7.848;2023-12-29T06:21:11;2.63;;;2.20;;
2438;SDS011;14509;47.992;7.848;2023-12-29T06:23:13;3.33;;;2.30;;
2438;SDS011;14509;47.992;7.848;2023-12-29T06:25:17;4.00;;;2.67;;
2438;SDS011;14509;47.992;7.848;2023-12-29T06:27:19;4.63;;;2.70;;
2438;SDS011;14509;47.992;7.848;2023-12-29T06:29:21;3.83;;;2.50;;
2438;SDS011;14509;47.992;7.848;2023-12-29T06:31:24;4.57;;;2.97;;
2438;SDS011;14509;47.992;7.848;2023-12-29T06:33:26;3.60;;;2.70;;
2438;SDS011;14509;47.992;7.848;2023-12-29T06:35:28;3.20;;;2.42;;
2438;SDS011;14509;47.992;7.848;2023-12-29T06:37:30;4.40;;;2.90;;
2438;SDS011;14509;47.992;7.848;2023-12-29T06:39:32;2.53;;;2.33;;
2438;SDS011;14509;47.992;7.848;2023-12-29T06:41:36;2.70;;;2.40;;
2438;SDS011;14509;47.992;7.848;2023-12-29T06:43:38;2.50;;;2.30;;
2438;SDS011;14509;47.992;7.848;2023-12-29T06:45:40;4.07;;;2.60;;
2438;SDS011;14509;47.992;7.848;2023-12-29T06:47:44;3.20;;;2.22;;
2438;SDS011;14509;47.992;7.848;2023-12-29T06:49:45;3.03;;;2.38;;
2438;SDS011;14509;47.992;7.848;2023-12-29T06:51:47;3.00;;;2.70;;
2438;SDS011;14509;47.992;7.848;2023-12-29T06:53:49;2.80;;;2.30;;
2438;SDS011;14509;47.992;7.848;2023-12-29T06:55:51;2.58;;;2.38;;
2438;SDS011;14509;47.992;7.848;2023-12-29T06:57:53;3.90;;;2.40;;
2438;SDS011;14509;47.992;7.848;2023-12-29T06:59:55;2.78;;;2.58;;
2438;SDS011;14509;47.992;7.848;2023-12-29T07:01:57;3.55;;;2.45;;
2438;SDS011;14509;47.992;7.848;2023-12-29T07:04:00;3.17;;;2.60;;
2438;SDS011;14509;47.992;7.848;2023-12-29T07:06:03;3.40;;;2.40;;
2438;SDS011;14509;47.992;7.848;2023-12-29T07:08:05;2.75;;;2.55;;
2438;SDS011;14509;47.992;7.848;2023-12-29T07:10:08;2.97;;;2.40;;
2438;SDS011;14509;47.992;7.848;2023-12-29T07:12:13;2.55;;;2.35;;
2438;SDS011;14509;47.992;7.848;2023-12-29T07:14:15;2.78;;;2.40;;
2438;SDS011;14509;47.992;7.848;2023-12-29T07:16:17;3.97;;;2.60;;
2438;SDS011;14509;47.992;7.848;2023-12-29T07:18:19;4.57;;;2.80;;
2438;SDS011;14509;47.992;7.848;2023-12-29T07:20:23;3.80;;;2.33;;
2438;SDS011;14509;47.992;7.848;2023-12-29T07:22:24;2.40;;;2.10;;
2438;SDS011;14509;47.992;7.848;2023-12-29T07:24:26;2.30;;;2.10;;
2438;SDS011;14509;47.992;7.848;2023-12-29T07:26:28;3.90;;;2.33;;
2438;SDS011;14509;47.992;7.848;2023-12-29T07:28:29;3.95;;;2.33;;
2438;SDS011;14509;47.992;7.848;2023-12-29T07:30:32;3.72;;;2.60;;
2438;SDS011;14509;47.992;7.848;2023-12-29T07:32:33;2.50;;;2.28;;
2438;SDS011;14509;47.992;7.848;2023-12-29T07:34:35;2.30;;;2.05;;
2438;SDS011;14509;47.992;7.848;2023-12-29T07:36:39;2.60;;;2.05;;
2438;SDS011;14509;47.992;7.848;2023-12-29T07:38:41;4.00;;;2.20;;
2438;SDS011;14509;47.992;7.848;2023-12-29T07:40:43;3.13;;;2.20;;
2438;SDS011;14509;47.992;7.848;2023-12-29T07:42:45;2.42;;;2.15;;
2438;SDS011;14509;47.992;7.848;2023-12-29T07:44:50;1.70;;;1.60;;
2438;SDS011;14509;47.992;7.848;2023-12-29T07:46:52;2.80;;;1.80;;
2438;SDS011;14509;47.992;7.848;2023-12-29T07:48:54;3.85;;;2.05;;
2438;SDS011;14509;47.992;7.848;2023-12-29T07:50:56;2.22;;;1.75;;
2438;SDS011;14509;47.992;7.848;2023-12-29T07:53:07;3.10;;;2.13;;
2438;SDS011;14509;47.992;7.848;2023-12-29T07:55:09;2.60;;;2.00;;
2438;SDS011;14509;47.992;7.848;2023-12-29T07:57:10;3.00;;;1.75;;
2438;SDS011;14509;47.992;7.848;2023-12-29T07:59:12;2.40;;;1.90;;
2438;SDS011;14509;47.992;7.848;2023-12-29T08:01:14;1.67;;;1.55;;
2438;SDS011;14509;47.992;7.848;2023-12-29T08:03:16;2.30;;;1.80;;
2438;SDS011;14509;47.992;7.848;2023-12-29T08:05:17;1.73;;;1.50;;
2438;SDS011;14509;47.992;7.848;2023-12-29T08:07:20;1.90;;;1.70;;
2438;SDS011;14509;47.992;7.848;2023-12-29T08:09:22;2.25;;;1.40;;
2438;SDS011;14509;47.992;7.848;2023-12-29T08:11:24;1.60;;;1.50;;
2438;SDS011;14509;47.992;7.848;2023-12-29T08:13:26;1.88;;;1.30;;
2438;SDS011;14509;47.992;7.848;2023-12-29T08:15:27;1.80;;;1.70;;
2438;SDS011;14509;47.992;7.848;2023-12-29T08:17:29;1.70;;;1.50;;
2438;SDS011;14509;47.992;7.848;2023-12-29T08:19:31;2.40;;;1.80;;
2438;SDS011;14509;47.992;7.848;2023-12-29T08:21:33;2.20;;;1.60;;
2438;SDS011;14509;47.992;7.848;2023-12-29T08:23:35;2.20;;;1.52;;
2438;SDS011;14509;47.992;7.848;2023-12-29T08:25:37;1.65;;;1.55;;
2438;SDS011;14509;47.992;7.848;2023-12-29T08:27:39;1.67;;;1.58;;
2438;SDS011;14509;47.992;7.848;2023-12-29T08:29:42;2.35;;;2.00;;
2438;SDS011;14509;47.992;7.848;2023-12-29T08:31:44;1.60;;;1.50;;
2438;SDS011;14509;47.992;7.848;2023-12-29T08:33:46;2.97;;;1.70;;
2438;SDS011;14509;47.992;7.848;2023-12-29T08:35:50;2.00;;;1.60;;
2438;SDS011;14509;47.992;7.848;2023-12-29T08:37:52;3.30;;;1.60;;
2438;SDS011;14509;47.992;7.848;2023-12-29T08:39:54;1.73;;;1.52;;
2438;SDS011;14509;47.992;7.848;2023-12-29T08:41:57;1.75;;;1.65;;
2438;SDS011;14509;47.992;7.848;2023-12-29T08:43:59;2.97;;;1.50;;
2438;SDS011;14509;47.992;7.848;2023-12-29T08:46:01;2.75;;;1.60;;
2438;SDS011;14509;47.992;7.848;2023-12-29T08:48:04;1.80;;;1.60;;
2438;SDS011;14509;47.992;7.848;2023-12-29T08:50:07;1.55;;;1.42;;
2438;SDS011;14509;47.992;7.848;2023-12-29T08:52:08;2.60;;;1.50;;
2438;SDS011;14509;47.992;7.848;2023-12-29T08:54:10;1.47;;;1.37;;
2438;SDS011;14509;47.992;7.848;2023-12-29T08:56:12;2.58;;;1.80;;
2438;SDS011;14509;47.992;7.848;2023-12-29T08:58:15;3.50;;;1.50;;
2438;SDS011;14509;47.992;7.848;2023-12-29T09:00:17;2.35;;;1.60;;
2438;SDS011;14509;47.992;7.848;2023-12-29T09:02:19;2.13;;;1.60;;
2438;SDS011;14509;47.992;7.848;2023-12-29T09:04:21;2.10;;;1.70;;
2438;SDS011;14509;47.992;7.848;2023-12-29T09:06:23;2.20;;;1.60;;
2438;SDS011;14509;47.992;7.848;2023-12-29T09:08:26;1.70;;;1.40;;
2438;SDS011;14509;47.992;7.848;2023-12-29T09:10:28;1.63;;;1.30;;
2438;SDS011;14509;47.992;7.848;2023-12-29T09:12:30;1.42;;;1.25;;
2438;SDS011;14509;47.992;7.848;2023-12-29T09:14:33;2.25;;;1.48;;
2438;SDS011;14509;47.992;7.848;2023-12-29T09:16:35;3.53;;;1.33;;
2438;SDS011;14509;47.992;7.848;2023-12-29T09:18:37;1.60;;;1.50;;
2438;SDS011;14509;47.992;7.848;2023-12-29T09:20:39;1.90;;;1.40;;
2438;SDS011;14509;47.992;7.848;2023-12-29T09:22:41;2.00;;;1.50;;
2438;SDS011;14509;47.992;7.848;2023-12-29T09:24:43;1.85;;;1.50;;
2438;SDS011;14509;47.992;7.848;2023-12-29T09:26:45;2.70;;;1.40;;
2438;SDS011;14509;47.992;7.848;2023-12-29T09:28:47;1.90;;;1.50;;
2438;SDS011;14509;47.992;7.848;2023-12-29T09:30:51;2.00;;;1.70;;
2438;SDS011;14509;47.992;7.848;2023-12-29T09:32:53;1.60;;;1.20;;
2438;SDS011;14509;47.992;7.848;2023-12-29T09:34:55;1.77;;;1.63;;
2438;SDS011;14509;47.992;7.848;2023-12-29T09:36:56;1.55;;;1.42;;
2438;SDS011;14509;47.992;7.848;2023-12-29T09:38:58;1.58;;;1.48;;
2438;SDS011;14509;47.992;7.848;2023-12-29T09:41:04;1.40;;;1.30;;
2438;SDS011;14509;47.992;7.848;2023-12-29T09:43:10;1.30;;;1.15;;
2438;SDS011;14509;47.992;7.848;2023-12-29T09:45:13;1.65;;;1.48;;
2438;SDS011;14509;47.992;7.848;2023-12-29T09:47:18;1.70;;;1.48;;
2438;SDS011;14509;47.992;7.848;2023-12-29T09:49:24;1.95;;;1.70;;
2438;SDS011;14509;47.992;7.848;2023-12-29T09:51:28;2.80;;;1.90;;
2438;SDS011;14509;47.992;7.848;2023-12-29T09:53:31;2.15;;;1.60;;
2438;SDS011;14509;47.992;7.848;2023-12-29T09:55:35;2.08;;;1.85;;
2438;SDS011;14509;47.992;7.848;2023-12-29T09:57:38;1.95;;;1.67;;
2438;SDS011;14509;47.992;7.848;2023-12-29T09:59:40;2.00;;;1.60;;
2438;SDS011;14509;47.992;7.848;2023-12-29T10:01:42;1.90;;;1.70;;
2438;SDS011;14509;47.992;7.848;2023-12-29T10:03:48;2.40;;;1.53;;
2438;SDS011;14509;47.992;7.848;2023-12-29T10:05:50;2.17;;;1.58;;
2438;SDS011;14509;47.992;7.848;2023-12-29T10:07:54;2.33;;;1.80;;
2438;SDS011;14509;47.992;7.848;2023-12-29T10:09:59;2.10;;;1.80;;
2438;SDS011;14509;47.992;7.848;2023-12-29T10:12:02;1.58;;;1.48;;
2438;SDS011;14509;47.992;7.848;2023-12-29T10:14:09;2.90;;;1.80;;
2438;SDS011;14509;47.992;7.848;2023-12-29T10:16:23;2.20;;;1.55;;
2438;SDS011;14509;47.992;7.848;2023-12-29T10:18:30;3.22;;;1.50;;
2438;SDS011;14509;47.992;7.848;2023-12-29T10:20:42;1.85;;;1.60;;
2438;SDS011;14509;47.992;7.848;2023-12-29T10:22:48;1.70;;;1.30;;
2438;SDS011;14509;47.992;7.848;2023-12-29T10:24:53;1.80;;;1.40;;
2438;SDS011;14509;47.992;7.848;2023-12-29T10:26:55;2.65;;;1.85;;
2438;SDS011;14509;47.992;7.848;2023-12-29T10:28:57;2.28;;;1.50;;
2438;SDS011;14509;47.992;7.848;2023-12-29T10:31:00;2.10;;;1.40;;
2438;SDS011;14509;47.992;7.848;2023-12-29T10:33:03;1.90;;;1.80;;
2438;SDS011;14509;47.992;7.848;2023-12-29T10:35:08;2.30;;;1.20;;
2438;SDS011;14509;47.992;7.848;2023-12-29T10:37:13;1.83;;;1.50;;
2438;SDS011;14509;47.992;7.848;2023-12-29T10:39:24;3.33;;;1.48;;
2438;SDS011;14509;47.992;7.848;2023-12-29T10:41:26;1.80;;;1.42;;
2438;SDS011;14509;47.992;7.848;2023-12-29T10:43:27;1.80;;;1.70;;
2438;SDS011;14509;47.992;7.848;2023-12-29T10:45:29;2.25;;;1.48;;
2438;SDS011;14509;47.992;7.848;2023-12-29T10:47:30;2.00;;;1.73;;
2438;SDS011;14509;47.992;7.848;2023-12-29T10:49:32;1.50;;;1.30;;
2438;SDS011;14509;47.992;7.848;2023-12-29T10:51:34;2.17;;;1.60;;
2438;SDS011;14509;47.992;7.848;2023-12-29T10:53:38;2.58;;;1.70;;
2438;SDS011;14509;47.992;7.848;2023-12-29T10:55:42;2.55;;;1.52;;
2438;SDS011;14509;47.992;7.848;2023-12-29T10:57:44;2.00;;;1.60;;
2438;SDS011;14509;47.992;7.848;2023-12-29T10:59:48;2.80;;;1.70;;
2438;SDS011;14509;47.992;7.848;2023-12-29T11:01:55;2.30;;;1.80;;
2438;SDS011;14509;47.992;7.848;2023-12-29T11:03:58;2.10;;;1.80;;
2438;SDS011;14509;47.992;7.848;2023-12-29T11:06:01;1.90;;;1.67;;
2438;SDS011;14509;47.992;7.848;2023-12-29T11:08:06;2.30;;;1.90;;
2438;SDS011;14509;47.992;7.848;2023-12-29T11:10:18;2.03;;;1.73;;
2438;SDS011;14509;47.992;7.848;2023-12-29T11:12:21;2.50;;;1.70;;
2438;SDS011;14509;47.992;7.848;2023-12-29T11:14:23;2.50;;;1.70;;
2438;SDS011;14509;47.992;7.848;2023-12-29T11:16:25;2.60;;;1.83;;
2438;SDS011;14509;47.992;7.848;2023-12-29T11:18:28;1.70;;;1.50;;
2438;SDS011;14509;47.992;7.848;2023-12-29T11:20:31;2.08;;;1.60;;
2438;SDS011;14509;47.992;7.848;2023-12-29T11:22:35;2.50;;;1.88;;
2438;SDS011;14509;47.992;7.848;2023-12-29T11:40:36;2.08;;;1.50;;
2438;SDS011;14509;47.992;7.848;2023-12-29T11:42:42;2.30;;;1.77;;
2438;SDS011;14509;47.992;7.848;2023-12-29T11:44:46;1.73;;;1.50;;
2438;SDS011;14509;47.992;7.848;2023-12-29T11:46:55;3.70;;;1.90;;
2438;SDS011;14509;47.992;7.848;2023-12-29T11:48:58;2.10;;;1.73;;
2438;SDS011;14509;47.992;7.848;2023-12-29T11:51:07;1.50;;;1.40;;
2438;SDS011;14509;47.992;7.848;2023-12-29T11:53:30;3.30;;;1.70;;
2438;SDS011;14509;47.992;7.848;2023-12-29T11:55:34;1.92;;;1.50;;
2438;SDS011;14509;47.992;7.848;2023-12-29T11:57:38;3.20;;;2.00;;
2438;SDS011;14509;47.992;7.848;2023-12-29T11:59:46;1.77;;;1.60;;
2438;SDS011;14509;47.992;7.848;2023-12-29T12:01:49;1.98;;;1.40;;
2438;SDS011;14509;47.992;7.848;2023-12-29T12:03:52;2.38;;;1.77;;
2438;SDS011;14509;47.992;7.848;2023-12-29T12:05:53;2.00;;;1.80;;
2438;SDS011;14509;47.992;7.848;2023-12-29T12:07:58;2.60;;;1.52;;
2438;SDS011;14509;47.992;7.848;2023-12-29T12:12:42;2.17;;;1.48;;
2438;SDS011;14509;47.992;7.848;2023-12-29T12:14:44;2.50;;;1.77;;
2438;SDS011;14509;47.992;7.848;2023-12-29T12:16:48;1.75;;;1.65;;
2438;SDS011;14509;47.992;7.848;2023-12-29T12:18:52;2.63;;;1.70;;
2438;SDS011;14509;47.992;7.848;2023-12-29T12:20:54;3.40;;;2.20;;
2438;SDS011;14509;47.992;7.848;2023-12-29T12:22:56;1.80;;;1.40;;
2438;SDS011;14509;47.992;7.848;2023-12-29T12:24:59;2.00;;;1.60;;
2438;SDS011;14509;47.992;7.848;2023-12-29T12:27:02;1.33;;;1.23;;
2438;SDS011;14509;47.992;7.848;2023-12-29T12:29:05;2.30;;;1.73;;
2438;SDS011;14509;47.992;7.848;2023-12-29T12:31:09;1.98;;;1.80;;
2438;SDS011;14509;47.992;7.848;2023-12-29T12:33:14;1.90;;;1.70;;
2438;SDS011;14509;47.992;7.848;2023-12-29T12:35:16;2.35;;;1.83;;
2438;SDS011;14509;47.992;7.848;2023-12-29T12:37:21;3.28;;;1.80;;
2438;SDS011;14509;47.992;7.848;2023-12-29T12:39:24;1.60;;;1.50;;
2438;SDS011;14509;47.992;7.848;2023-12-29T12:41:37;2.70;;;1.80;;
2438;SDS011;14509;47.992;7.848;2023-12-29T12:43:40;2.30;;;1.80;;
2438;SDS011;14509;47.992;7.848;2023-12-29T12:45:48;3.00;;;2.00;;
2438;SDS011;14509;47.992;7.848;2023-12-29T12:47:55;1.90;;;1.60;;
2438;SDS011;14509;47.992;7.848;2023-12-29T12:50:04;2.15;;;1.90;;